createdAt,value
2023-05-12T00:01:47.753Z,97757.00
2023-05-12T00:04:15.409Z,97747.00
2023-05-12T00:06:43.116Z,97755.00
2023-05-12T00:09:10.782Z,97760.00
2023-05-12T00:11:40.011Z,97755.00
2023-05-12T00:14:07.804Z,97746.00
2023-05-12T00:16:35.493Z,97750.00
2023-05-12T00:19:03.430Z,97747.00
2023-05-12T00:21:31.068Z,97752.00
2023-05-12T00:23:58.720Z,97744.00
2023-05-12T00:26:26.379Z,97750.00
2023-05-12T00:28:55.402Z,97752.00
2023-05-12T00:31:23.067Z,97750.00
2023-05-12T00:33:50.828Z,97749.00
2023-05-12T00:36:18.435Z,97749.00
2023-05-12T00:38:46.084Z,97752.00
2023-05-12T00:41:13.695Z,97747.00
2023-05-12T00:43:41.375Z,97747.00
2023-05-12T00:46:12.506Z,97747.00
2023-05-12T00:48:40.492Z,97742.00
2023-05-12T00:51:08.454Z,97744.00
2023-05-12T00:53:48.154Z,97748.00
2023-05-12T00:56:19.228Z,97745.00
2023-05-12T00:58:47.203Z,97738.00
2023-05-12T01:01:16.421Z,97740.00
2023-05-12T01:03:44.608Z,97742.00
2023-05-12T01:06:17.726Z,97736.00
2023-05-12T01:08:46.250Z,97742.00
2023-05-12T01:11:13.966Z,97741.00
2023-05-12T01:13:42.117Z,97746.00
2023-05-12T01:16:11.605Z,97740.00
2023-05-12T01:18:42.973Z,97733.00
2023-05-12T01:21:11.888Z,97732.00
2023-05-12T01:23:45.564Z,97736.00
2023-05-12T01:26:14.704Z,97727.00
2023-05-12T01:28:42.943Z,97728.00
2023-05-12T01:31:11.106Z,97731.00
2023-05-12T01:33:39.846Z,97729.00
2023-05-12T01:36:07.741Z,97728.00
2023-05-12T01:38:35.879Z,97725.00
2023-05-12T01:41:03.541Z,97728.00
2023-05-12T01:43:32.591Z,97731.00
2023-05-12T01:46:00.477Z,97731.00
2023-05-12T01:48:28.221Z,97725.00
2023-05-12T01:50:55.825Z,97724.00
2023-05-12T01:53:23.547Z,97725.00
2023-05-12T01:55:51.483Z,97721.00
2023-05-12T01:58:20.434Z,97718.00
2023-05-12T02:00:49.379Z,97724.00
2023-05-12T02:03:17.059Z,97723.00
2023-05-12T02:05:44.730Z,97718.00
2023-05-12T02:08:12.453Z,97725.00
2023-05-12T02:10:40.071Z,97715.00
2023-05-12T02:13:07.722Z,97726.00
2023-05-12T02:15:35.403Z,97719.00
2023-05-12T02:18:04.578Z,97717.00
2023-05-12T02:20:32.287Z,97718.00
2023-05-12T02:22:59.941Z,97722.00
2023-05-12T02:25:27.646Z,97720.00
2023-05-12T02:27:55.290Z,97717.00
2023-05-12T02:30:23.063Z,97718.00
2023-05-12T02:32:50.770Z,97723.00
2023-05-12T02:35:19.784Z,97720.00
2023-05-12T02:37:47.457Z,97715.00
2023-05-12T02:40:16.050Z,97718.00
2023-05-12T02:42:45.533Z,97718.00
2023-05-12T02:45:13.851Z,97727.00
2023-05-12T02:47:41.614Z,97719.00
2023-05-12T02:50:10.374Z,97718.00
2023-05-12T02:52:39.376Z,97721.00
2023-05-12T02:55:07.296Z,97718.00
2023-05-12T02:57:35.401Z,97716.00
2023-05-12T03:00:05.804Z,97715.00
2023-05-12T03:02:33.605Z,97711.00
2023-05-12T03:05:01.786Z,97714.00
2023-05-12T03:07:29.543Z,97710.00
2023-05-12T03:09:58.876Z,97711.00
2023-05-12T03:12:26.506Z,97703.00
2023-05-12T03:14:54.175Z,97704.00
2023-05-12T03:17:21.823Z,97707.00
2023-05-12T03:19:49.532Z,97708.00
2023-05-12T03:22:17.287Z,97713.00
2023-05-12T03:24:44.952Z,97718.00
2023-05-12T03:27:13.924Z,97709.00
2023-05-12T03:29:41.966Z,97710.00
2023-05-12T03:32:09.711Z,97707.00
2023-05-12T03:34:37.344Z,97709.00
2023-05-12T03:37:05.307Z,97715.00
2023-05-12T03:39:33.151Z,97706.00
2023-05-12T03:42:00.817Z,97716.00
2023-05-12T03:44:29.849Z,97706.00
2023-05-12T03:46:57.605Z,97709.00
2023-05-12T03:49:25.314Z,97708.00
2023-05-12T03:51:52.954Z,97703.00
2023-05-12T03:54:20.728Z,97702.00
2023-05-12T03:56:48.447Z,97696.00
2023-05-12T03:59:16.304Z,97703.00
2023-05-12T04:01:45.443Z,97700.00
2023-05-12T04:04:13.167Z,97705.00
2023-05-12T04:06:40.853Z,97702.00
2023-05-12T04:09:08.482Z,97711.00
2023-05-12T04:11:36.908Z,97717.00
2023-05-12T04:14:04.549Z,97712.00
2023-05-12T04:16:32.532Z,97706.00
2023-05-12T04:19:01.756Z,97711.00
2023-05-12T04:21:29.378Z,97710.00
2023-05-12T04:23:57.027Z,97712.00
2023-05-12T04:26:24.678Z,97705.00
2023-05-12T04:28:52.295Z,97711.00
2023-05-12T04:31:20.051Z,97717.00
2023-05-12T04:33:48.520Z,97728.00
2023-05-12T04:36:17.609Z,97716.00
2023-05-12T04:38:45.250Z,97721.00
2023-05-12T04:41:12.889Z,97719.00
2023-05-12T04:46:11.255Z,97718.00
2023-05-12T04:48:41.980Z,97723.00
2023-05-12T04:51:10.047Z,97724.00
2023-05-12T04:53:39.093Z,97728.00
2023-05-12T04:56:07.266Z,97726.00
2023-05-12T04:58:34.982Z,97727.00
2023-05-12T05:01:02.695Z,97735.00
2023-05-12T05:03:30.567Z,97730.00
2023-05-12T05:05:58.717Z,97729.00
2023-05-12T05:08:26.373Z,97733.00
2023-05-12T05:10:55.489Z,97732.00
2023-05-12T05:13:23.190Z,97733.00
2023-05-12T05:15:51.882Z,97730.00
2023-05-12T05:18:21.128Z,97743.00
2023-05-12T05:20:57.786Z,97742.00
2023-05-12T05:23:26.480Z,97739.00
2023-05-12T05:25:55.537Z,97740.00
2023-05-12T05:28:23.144Z,97737.00
2023-05-12T05:30:50.814Z,97739.00
2023-05-12T05:33:18.462Z,97753.00
2023-05-12T05:35:46.638Z,97745.00
2023-05-12T05:38:14.394Z,97746.00
2023-05-12T05:40:53.001Z,97741.00
2023-05-12T05:43:23.404Z,97745.00
2023-05-12T05:45:51.402Z,97748.00
2023-05-12T05:48:19.230Z,97743.00
2023-05-12T05:50:46.896Z,97742.00
2023-05-12T05:53:14.765Z,97746.00
2023-05-12T05:55:42.440Z,97755.00
2023-05-12T05:58:10.075Z,97754.00
2023-05-12T06:00:39.293Z,97753.00
2023-05-12T06:03:07.080Z,97756.00
2023-05-12T06:05:35.151Z,97760.00
2023-05-12T06:08:02.863Z,97767.00
2023-05-12T06:10:30.547Z,97765.00
2023-05-12T06:12:58.192Z,97766.00
2023-05-12T06:15:25.929Z,97766.00
2023-05-12T06:17:54.975Z,97771.00
2023-05-12T06:20:23.319Z,97777.00
2023-05-12T06:22:50.971Z,97773.00
2023-05-12T06:25:19.092Z,97782.00
2023-05-12T06:27:46.906Z,97781.00
2023-05-12T06:30:16.366Z,97778.00
2023-05-12T06:32:44.284Z,97780.00
2023-05-12T06:35:13.514Z,97787.00
2023-05-12T06:37:41.180Z,97787.00
2023-05-12T06:40:09.697Z,97784.00
2023-05-12T06:42:37.351Z,97790.00
2023-05-12T06:45:05.784Z,97785.00
2023-05-12T06:47:33.613Z,97790.00
2023-05-12T06:50:01.343Z,97789.00
2023-05-12T06:52:30.355Z,97793.00
2023-05-12T06:54:58.001Z,97792.00
2023-05-12T06:57:25.629Z,97786.00
2023-05-12T06:59:53.314Z,97789.00
2023-05-12T07:02:21.244Z,97797.00
2023-05-12T07:04:48.900Z,97795.00
2023-05-12T07:07:16.545Z,97796.00
2023-05-12T07:09:46.054Z,97795.00
2023-05-12T07:12:13.769Z,97797.00
2023-05-12T07:14:41.404Z,97800.00
2023-05-12T07:17:09.083Z,97797.00
2023-05-12T07:19:36.721Z,97794.00
2023-05-12T07:22:04.586Z,97800.00
2023-05-12T07:24:32.412Z,97802.00
2023-05-12T07:27:02.642Z,97796.00
2023-05-12T07:29:30.367Z,97797.00
2023-05-12T07:31:58.656Z,97797.00
2023-05-12T07:34:26.332Z,97791.00
2023-05-12T07:36:54.046Z,97806.00
2023-05-12T07:39:23.833Z,97799.00
2023-05-12T07:41:53.535Z,97804.00
2023-05-12T07:44:22.565Z,97799.00
2023-05-12T07:46:50.346Z,97806.00
2023-05-12T07:49:18.018Z,97804.00
2023-05-12T07:51:45.671Z,97807.00
2023-05-12T07:54:13.493Z,97813.00
2023-05-12T07:56:41.229Z,97806.00
2023-05-12T07:59:08.916Z,97809.00
2023-05-12T08:01:38.042Z,97815.00
2023-05-12T08:04:06.747Z,97814.00
2023-05-12T08:06:34.638Z,97818.00
2023-05-12T08:09:02.425Z,97815.00
2023-05-12T08:11:30.156Z,97817.00
2023-05-12T08:13:57.858Z,97817.00
2023-05-12T08:16:25.537Z,97822.00
2023-05-12T08:18:54.622Z,97817.00
2023-05-12T08:21:22.349Z,97819.00
2023-05-12T08:23:49.966Z,97820.00
2023-05-12T08:26:17.620Z,97816.00
2023-05-12T08:28:45.251Z,97818.00
2023-05-12T08:31:13.146Z,97821.00
2023-05-12T08:33:40.833Z,97823.00
2023-05-12T08:36:10.062Z,97832.00
2023-05-12T08:38:37.735Z,97824.00
2023-05-12T08:41:15.366Z,97828.00
2023-05-12T08:43:45.294Z,97830.00
2023-05-12T08:46:13.678Z,97830.00
2023-05-12T08:48:41.675Z,97833.00
2023-05-12T08:51:12.130Z,97831.00
2023-05-12T08:53:40.548Z,97842.00
2023-05-12T08:58:42.038Z,97835.00
2023-05-12T09:01:12.594Z,97834.00
2023-05-12T09:03:40.445Z,97831.00
2023-05-12T09:06:09.366Z,97837.00
2023-05-12T09:08:39.193Z,97838.00
2023-05-12T09:11:06.924Z,97839.00
2023-05-12T09:13:40.954Z,97837.00
2023-05-12T09:16:13.094Z,97841.00
2023-05-12T09:18:48.186Z,97844.00
2023-05-12T09:21:15.901Z,97842.00
2023-05-12T09:23:55.327Z,97847.00
2023-05-12T09:26:23.909Z,97847.00
2023-05-12T09:28:53.980Z,97857.00
2023-05-12T09:31:23.489Z,97858.00
2023-05-12T09:33:52.686Z,97868.00
2023-05-12T09:36:21.180Z,97862.00
2023-05-12T09:39:04.444Z,97854.00
2023-05-12T09:41:32.404Z,97858.00
2023-05-12T09:44:00.817Z,97864.00
2023-05-12T09:46:28.604Z,97859.00
2023-05-12T09:48:57.300Z,97861.00
2023-05-12T09:51:26.875Z,97859.00
2023-05-12T09:53:54.803Z,97860.00
2023-05-12T09:56:25.831Z,97858.00
2023-05-12T09:58:54.749Z,97860.00
2023-05-12T10:01:23.999Z,97860.00
2023-05-12T10:03:54.109Z,97855.00
2023-05-12T10:06:26.897Z,97847.00
2023-05-12T10:08:59.855Z,97852.00
2023-05-12T10:11:30.187Z,97847.00
2023-05-12T10:13:57.932Z,97842.00
2023-05-12T10:16:27.730Z,97852.00
2023-05-12T10:18:56.401Z,97847.00
2023-05-12T10:21:26.568Z,97848.00
2023-05-12T10:23:55.395Z,97851.00
2023-05-12T10:26:23.272Z,97855.00
2023-05-12T10:28:53.196Z,97847.00
2023-05-12T10:31:22.357Z,97853.00
2023-05-12T10:33:58.593Z,97849.00
2023-05-12T10:36:26.266Z,97845.00
2023-05-12T10:38:54.795Z,97852.00
2023-05-12T10:41:32.875Z,97854.00
2023-05-12T10:44:02.433Z,97855.00
2023-05-12T10:46:30.577Z,97853.00
2023-05-12T10:49:00.611Z,97859.00
2023-05-12T10:51:29.774Z,97864.00
2023-05-12T10:53:59.050Z,97861.00
2023-05-12T10:56:28.849Z,97857.00
2023-05-12T10:59:17.426Z,97853.00
2023-05-12T11:01:58.924Z,97854.00
2023-05-12T11:04:40.611Z,97855.00
2023-05-12T11:07:09.754Z,97856.00
2023-05-12T11:09:43.444Z,97846.00
2023-05-12T11:12:18.290Z,97859.00
2023-05-12T11:14:48.276Z,97858.00
2023-05-12T11:17:16.621Z,97853.00
2023-05-12T11:19:47.721Z,97856.00
2023-05-12T11:22:18.458Z,97876.00
2023-05-12T11:24:46.292Z,97877.00
2023-05-12T11:27:15.538Z,97868.00
2023-05-12T11:29:43.802Z,97868.00
2023-05-12T11:32:13.564Z,97873.00
2023-05-12T11:34:41.550Z,97874.00
2023-05-12T11:37:09.218Z,97875.00
2023-05-12T11:39:37.343Z,97883.00
2023-05-12T11:42:12.971Z,97876.00
2023-05-12T11:44:48.326Z,97886.00
2023-05-12T11:47:18.487Z,97879.00
2023-05-12T11:49:48.779Z,97880.00
2023-05-12T11:52:17.036Z,97883.00
2023-05-12T11:54:49.460Z,97881.00
2023-05-12T11:57:25.991Z,97880.00
2023-05-12T11:59:58.783Z,97870.00
2023-05-12T12:02:28.279Z,97877.00
2023-05-12T12:04:56.433Z,97878.00
2023-05-12T12:07:31.680Z,97878.00
2023-05-12T12:10:00.949Z,97885.00
2023-05-12T12:12:28.688Z,97896.00
2023-05-12T12:14:59.968Z,97894.00
2023-05-12T12:17:31.296Z,97895.00
2023-05-12T12:19:59.162Z,97897.00
2023-05-12T12:22:26.924Z,97900.00
2023-05-12T12:24:54.701Z,97905.00
2023-05-12T12:27:22.374Z,97900.00
2023-05-12T12:29:50.728Z,97908.00
2023-05-12T12:32:18.586Z,97906.00
2023-05-12T12:34:49.150Z,97912.00
2023-05-12T12:37:17.323Z,97909.00
2023-05-12T12:39:45.082Z,97910.00
2023-05-12T12:42:13.389Z,97909.00
2023-05-12T12:44:41.090Z,97908.00
2023-05-12T12:47:08.775Z,97914.00
2023-05-12T12:49:36.526Z,97915.00
2023-05-12T12:52:06.030Z,97916.00
2023-05-12T12:54:33.899Z,97914.00
2023-05-12T12:57:01.585Z,97909.00
2023-05-12T12:59:29.221Z,97917.00
2023-05-12T13:01:59.950Z,97911.00
2023-05-12T13:04:27.779Z,97920.00
2023-05-12T13:06:56.539Z,97909.00
2023-05-12T13:09:25.587Z,97912.00
2023-05-12T13:11:53.331Z,97913.00
2023-05-12T13:14:21.567Z,97916.00
2023-05-12T13:16:49.333Z,97921.00
2023-05-12T13:19:17.002Z,97919.00
2023-05-12T13:21:44.704Z,97926.00
2023-05-12T13:24:12.335Z,97927.00
2023-05-12T13:26:41.347Z,97921.00
2023-05-12T13:29:09.302Z,97923.00
2023-05-12T13:31:38.682Z,97929.00
2023-05-12T13:34:06.344Z,97931.00
2023-05-12T13:36:34.721Z,97920.00
2023-05-12T13:39:02.882Z,97926.00
2023-05-12T13:41:30.711Z,97935.00
2023-05-12T13:43:59.714Z,97929.00
2023-05-12T13:46:27.419Z,97920.00
2023-05-12T13:48:55.141Z,97928.00
2023-05-12T13:51:23.615Z,97930.00
2023-05-12T13:53:51.722Z,97931.00
2023-05-12T13:56:19.616Z,97934.00
2023-05-12T13:58:47.746Z,97936.00
2023-05-12T14:01:17.019Z,97927.00
2023-05-12T14:03:45.773Z,97935.00
2023-05-12T14:06:13.484Z,97932.00
2023-05-12T14:08:41.767Z,97929.00
2023-05-12T14:11:10.037Z,97930.00
2023-05-12T14:13:37.778Z,97926.00
2023-05-12T14:16:06.207Z,97933.00
2023-05-12T14:18:35.409Z,97928.00
2023-05-12T14:21:03.201Z,97933.00
2023-05-12T14:23:30.838Z,97932.00
2023-05-12T14:25:58.665Z,97931.00
2023-05-12T14:28:26.409Z,97937.00
2023-05-12T14:30:54.347Z,97938.00
2023-05-12T14:33:22.450Z,97932.00
2023-05-12T14:36:03.265Z,97930.00
2023-05-12T14:38:34.058Z,97931.00
2023-05-12T14:41:01.696Z,97938.00
2023-05-12T14:43:29.455Z,97937.00
2023-05-12T14:45:57.608Z,97945.00
2023-05-12T14:48:26.107Z,97942.00
2023-05-12T14:50:55.775Z,97947.00
2023-05-12T14:53:23.977Z,97941.00
2023-05-12T14:55:52.242Z,97940.00
2023-05-12T14:58:21.625Z,97946.00
2023-05-12T15:00:51.113Z,97944.00
2023-05-12T15:03:20.706Z,97951.00
2023-05-12T15:06:04.489Z,97945.00
2023-05-12T15:08:35.219Z,97950.00
2023-05-12T15:11:02.860Z,97947.00
2023-05-12T15:13:30.635Z,97947.00
2023-05-12T15:15:58.336Z,97953.00
2023-05-12T15:18:26.032Z,97951.00
2023-05-12T15:20:53.700Z,97944.00
2023-05-12T15:23:22.048Z,97948.00
2023-05-12T15:25:51.259Z,97943.00
2023-05-12T15:28:18.977Z,97947.00
2023-05-12T15:30:55.163Z,97939.00
2023-05-12T15:33:22.895Z,97952.00
2023-05-12T15:35:50.521Z,97950.00
2023-05-12T15:38:18.176Z,97946.00
2023-05-12T15:40:45.972Z,97943.00
2023-05-12T15:43:15.131Z,97947.00
2023-05-12T15:45:42.748Z,97947.00
2023-05-12T15:48:14.422Z,97937.00
2023-05-12T15:50:43.237Z,97944.00
2023-05-12T15:53:10.921Z,97936.00
2023-05-12T15:55:38.599Z,97937.00
2023-05-12T15:58:08.140Z,97931.00
2023-05-12T16:00:37.448Z,97944.00
2023-05-12T16:03:05.238Z,97931.00
2023-05-12T16:05:34.114Z,97940.00
2023-05-12T16:08:01.785Z,97936.00
2023-05-12T16:10:29.488Z,97931.00
2023-05-12T16:12:57.225Z,97929.00
2023-05-12T16:15:24.878Z,97934.00
2023-05-12T16:17:54.019Z,97928.00
2023-05-12T16:20:21.953Z,97922.00
2023-05-12T16:22:51.199Z,97926.00
2023-05-12T16:25:19.138Z,97926.00
2023-05-12T16:27:46.893Z,97925.00
2023-05-12T16:30:16.214Z,97927.00
2023-05-12T16:32:46.967Z,97916.00
2023-05-12T16:35:16.531Z,97922.00
2023-05-12T16:37:44.224Z,97920.00
2023-05-12T16:40:12.309Z,97920.00
2023-05-12T16:42:40.008Z,97915.00
2023-05-12T16:45:08.901Z,97918.00
2023-05-12T16:47:36.546Z,97919.00
2023-05-12T16:50:04.296Z,97928.00
2023-05-12T16:52:33.287Z,97927.00
2023-05-12T16:55:01.143Z,97928.00
2023-05-12T16:57:28.763Z,97926.00
2023-05-12T16:59:56.491Z,97931.00
2023-05-12T17:02:24.209Z,97927.00
2023-05-12T17:04:51.910Z,97928.00
2023-05-12T17:07:19.522Z,97923.00
2023-05-12T17:09:48.539Z,97925.00
2023-05-12T17:12:16.678Z,97924.00
2023-05-12T17:14:46.183Z,97924.00
2023-05-12T17:17:20.745Z,97928.00
2023-05-12T17:19:48.412Z,97944.00
2023-05-12T17:22:16.649Z,97937.00
2023-05-12T17:24:44.480Z,97931.00
2023-05-12T17:27:13.481Z,97937.00
2023-05-12T17:29:41.205Z,97939.00
2023-05-12T17:32:08.834Z,97940.00
2023-05-12T17:34:36.938Z,97937.00
2023-05-12T17:37:06.067Z,97941.00
2023-05-12T17:39:44.363Z,97941.00
2023-05-12T17:42:13.355Z,97949.00
2023-05-12T17:44:41.210Z,97944.00
2023-05-12T17:47:08.991Z,97939.00
2023-05-12T17:49:36.687Z,97950.00
2023-05-12T17:52:04.567Z,97944.00
2023-05-12T17:54:32.278Z,97944.00
2023-05-12T17:57:00.048Z,97942.00
2023-05-12T17:59:28.980Z,97952.00
2023-05-12T18:01:56.639Z,97957.00
2023-05-12T18:04:24.294Z,97951.00
2023-05-12T18:06:52.686Z,97955.00
2023-05-12T18:09:21.436Z,97958.00
2023-05-12T18:11:49.560Z,97961.00
2023-05-12T18:14:17.760Z,97958.00
2023-05-12T18:16:46.791Z,97972.00
2023-05-12T18:19:14.627Z,97966.00
2023-05-12T18:21:42.320Z,97967.00
2023-05-12T18:24:10.044Z,97969.00
2023-05-12T18:26:37.694Z,97961.00
2023-05-12T18:29:05.347Z,97976.00
2023-05-12T18:31:32.995Z,97972.00
2023-05-12T18:34:02.110Z,97978.00
2023-05-12T18:36:30.903Z,97981.00
2023-05-12T18:38:58.648Z,97988.00
2023-05-12T18:41:26.300Z,97981.00
2023-05-12T18:43:54.084Z,97986.00
2023-05-12T18:46:21.803Z,97987.00
2023-05-12T18:48:50.052Z,97992.00
2023-05-12T18:51:19.027Z,97997.00
2023-05-12T18:53:47.602Z,97997.00
2023-05-12T18:56:15.794Z,98004.00
2023-05-12T18:58:43.496Z,98004.00
2023-05-12T19:01:11.262Z,98009.00
2023-05-12T19:03:38.969Z,98006.00
2023-05-12T19:06:06.751Z,98005.00
2023-05-12T19:08:35.726Z,98013.00
2023-05-12T19:11:04.116Z,98021.00
2023-05-12T19:13:31.792Z,98016.00
2023-05-12T19:15:59.458Z,98018.00
2023-05-12T19:18:27.185Z,98027.00
2023-05-12T19:20:55.528Z,98024.00
2023-05-12T19:23:24.431Z,98026.00
2023-05-12T19:25:53.645Z,98029.00
2023-05-12T19:28:21.265Z,98025.00
2023-05-12T19:30:48.889Z,98029.00
2023-05-12T19:33:17.496Z,98029.00
2023-05-12T19:35:45.222Z,98032.00
2023-05-12T19:38:12.925Z,98029.00
2023-05-12T19:40:40.565Z,98033.00
2023-05-12T19:43:10.634Z,98034.00
2023-05-12T19:45:38.377Z,98029.00
2023-05-12T19:48:06.352Z,98029.00
2023-05-12T19:50:34.173Z,98028.00
2023-05-12T19:53:01.834Z,98031.00
2023-05-12T19:55:30.158Z,98029.00
2023-05-12T19:57:57.925Z,98035.00
2023-05-12T20:00:26.897Z,98043.00
2023-05-12T20:02:54.704Z,98039.00
2023-05-12T20:05:22.628Z,98046.00
2023-05-12T20:07:51.071Z,98042.00
2023-05-12T20:10:20.680Z,98041.00
2023-05-12T20:12:48.331Z,98046.00
2023-05-12T20:15:16.259Z,98044.00
2023-05-12T20:17:45.232Z,98045.00
2023-05-12T20:20:14.540Z,98048.00
2023-05-12T20:22:42.342Z,98055.00
2023-05-12T20:25:12.399Z,98051.00
2023-05-12T20:27:40.007Z,98066.00
2023-05-12T20:30:09.364Z,98063.00
2023-05-12T20:32:37.522Z,98063.00
2023-05-12T20:35:07.159Z,98060.00
2023-05-12T20:37:34.906Z,98062.00
2023-05-12T20:40:03.098Z,98058.00
2023-05-12T20:42:30.931Z,98060.00
2023-05-12T20:44:59.104Z,98057.00
2023-05-12T20:47:27.565Z,98055.00
2023-05-12T20:49:58.703Z,98047.00
2023-05-12T20:52:28.963Z,98047.00
2023-05-12T20:54:57.524Z,98051.00
2023-05-12T20:57:25.233Z,98053.00
2023-05-12T20:59:53.448Z,98045.00
2023-05-12T21:02:21.223Z,98040.00
2023-05-12T21:04:48.914Z,98045.00
2023-05-12T21:07:16.628Z,98039.00
2023-05-12T21:09:45.649Z,98034.00
2023-05-12T21:12:13.310Z,98042.00
2023-05-12T21:14:41.626Z,98040.00
2023-05-12T21:17:11.058Z,98039.00
2023-05-12T21:19:39.960Z,98048.00
2023-05-12T21:22:09.072Z,98039.00
2023-05-12T21:24:37.456Z,98031.00
2023-05-12T21:27:08.100Z,98040.00
2023-05-12T21:29:36.385Z,98037.00
2023-05-12T21:32:04.406Z,98041.00
2023-05-12T21:34:33.623Z,98037.00
2023-05-12T21:37:01.574Z,98038.00
2023-05-12T21:39:29.999Z,98039.00
2023-05-12T21:41:57.635Z,98036.00
2023-05-12T21:44:26.595Z,98036.00
2023-05-12T21:46:54.210Z,98034.00
2023-05-12T21:49:21.930Z,98027.00
2023-05-12T21:51:49.652Z,98034.00
2023-05-12T21:54:17.402Z,98034.00
2023-05-12T21:56:45.067Z,98046.00
2023-05-12T21:59:12.678Z,98043.00
2023-05-12T22:01:41.818Z,98053.00
2023-05-12T22:04:09.597Z,98042.00
2023-05-12T22:06:37.427Z,98051.00
2023-05-12T22:09:05.367Z,98054.00
2023-05-12T22:11:33.399Z,98057.00
2023-05-12T22:14:01.077Z,98056.00
2023-05-12T22:16:40.681Z,98056.00
2023-05-12T22:19:11.145Z,98051.00
2023-05-12T22:21:38.831Z,98053.00
2023-05-12T22:24:07.202Z,98053.00
2023-05-12T22:26:34.866Z,98047.00
2023-05-12T22:29:02.553Z,98043.00
2023-05-12T22:31:30.262Z,98043.00
2023-05-12T22:33:57.959Z,98043.00
2023-05-12T22:36:26.953Z,98040.00
2023-05-12T22:39:38.709Z,98038.00
2023-05-12T22:43:11.782Z,98048.00
2023-05-12T22:45:39.436Z,98038.00
2023-05-12T22:48:07.191Z,98041.00
2023-05-12T22:50:34.911Z,98052.00
2023-05-12T22:53:03.952Z,98045.00
2023-05-12T22:55:31.718Z,98050.00
2023-05-12T22:57:59.776Z,98053.00
2023-05-12T23:00:27.833Z,98052.00
2023-05-12T23:02:55.638Z,98047.00
2023-05-12T23:05:23.523Z,98054.00
2023-05-12T23:07:51.516Z,98048.00
2023-05-12T23:10:20.863Z,98045.00
2023-05-12T23:12:48.645Z,98037.00
2023-05-12T23:15:16.621Z,98036.00
2023-05-12T23:17:44.253Z,98044.00
2023-05-12T23:20:12.970Z,98045.00
2023-05-12T23:22:40.603Z,98041.00
2023-05-12T23:25:09.360Z,98044.00
2023-05-12T23:27:38.339Z,98040.00
2023-05-12T23:30:07.261Z,98042.00
2023-05-12T23:32:35.094Z,98040.00
2023-05-12T23:35:02.794Z,98044.00
2023-05-12T23:37:30.610Z,98035.00
2023-05-12T23:39:58.320Z,98036.00
2023-05-12T23:42:25.973Z,98034.00
2023-05-12T23:44:55.441Z,98032.00
2023-05-12T23:47:23.131Z,98031.00
2023-05-12T23:49:50.868Z,98031.00
2023-05-12T23:52:18.503Z,98030.00
2023-05-12T23:54:46.153Z,98037.00
2023-05-12T23:57:13.782Z,98031.00
2023-05-12T23:59:41.473Z,98028.00
